createdAt,value
2022-12-17T00:02:10.837Z,21.63
2022-12-17T00:04:57.039Z,19.67
2022-12-17T00:07:43.149Z,23.07
2022-12-17T00:10:29.126Z,20.53
2022-12-17T00:13:15.238Z,20.30
2022-12-17T00:16:01.078Z,22.00
2022-12-17T00:18:47.960Z,20.53
2022-12-17T00:21:34.128Z,19.80
2022-12-17T00:24:19.838Z,22.90
2022-12-17T00:27:05.905Z,19.23
2022-12-17T00:29:51.690Z,19.20
2022-12-17T00:32:37.691Z,18.57
2022-12-17T00:35:25.645Z,19.50
2022-12-17T00:38:11.658Z,20.07
2022-12-17T00:40:57.383Z,20.17
2022-12-17T00:43:45.716Z,17.07
2022-12-17T00:46:31.826Z,20.07
2022-12-17T00:49:18.232Z,19.03
2022-12-17T00:52:01.808Z,25.33
2022-12-17T00:54:47.918Z,33.63
2022-12-17T00:57:33.923Z,51.37
2022-12-17T01:00:20.233Z,90.17
2022-12-17T01:03:06.155Z,109.37
2022-12-17T01:05:51.932Z,120.80
2022-12-17T01:08:39.511Z,121.37
2022-12-17T01:11:27.048Z,132.13
2022-12-17T01:14:12.849Z,90.03
2022-12-17T01:16:59.220Z,501.00
2022-12-17T01:19:45.121Z,130.43
2022-12-17T01:22:31.253Z,61.93
2022-12-17T01:25:20.069Z,97.93
2022-12-17T01:28:07.069Z,194.03
2022-12-17T01:30:54.870Z,120.30
2022-12-17T01:33:41.728Z,107.20
2022-12-17T01:36:27.512Z,109.70
2022-12-17T01:39:13.515Z,105.17
2022-12-17T01:42:00.829Z,99.27
2022-12-17T01:45:14.437Z,152.77
2022-12-17T01:48:06.292Z,87.40
2022-12-17T01:50:55.667Z,126.73
2022-12-17T01:53:44.261Z,113.20
2022-12-17T01:56:31.177Z,79.43
2022-12-17T01:59:18.153Z,95.53
2022-12-17T02:02:04.186Z,121.47
2022-12-17T02:04:50.548Z,116.60
2022-12-17T02:07:46.796Z,116.90
2022-12-17T02:10:42.451Z,116.73
2022-12-17T02:13:34.906Z,115.33
2022-12-17T02:16:28.643Z,99.67
2022-12-17T02:19:28.934Z,112.13
2022-12-17T02:22:19.944Z,106.60
2022-12-17T02:25:12.068Z,83.57
2022-12-17T02:27:59.059Z,117.67
2022-12-17T02:30:53.617Z,96.00
2022-12-17T02:33:40.204Z,113.30
2022-12-17T02:36:27.519Z,92.50
2022-12-17T02:39:13.179Z,78.57
2022-12-17T02:42:03.886Z,97.63
2022-12-17T02:44:52.920Z,90.30
2022-12-17T02:47:40.944Z,122.43
2022-12-17T02:50:28.005Z,109.17
2022-12-17T02:53:17.524Z,109.03
2022-12-17T02:56:04.125Z,103.93
2022-12-17T02:58:52.547Z,101.43
2022-12-17T03:01:39.838Z,90.40
2022-12-17T03:04:25.855Z,85.23
2022-12-17T03:07:11.926Z,88.20
2022-12-17T03:09:58.084Z,77.30
2022-12-17T03:12:43.648Z,76.37
2022-12-17T03:15:29.535Z,70.80
2022-12-17T03:18:16.857Z,75.27
2022-12-17T03:21:02.990Z,71.17
2022-12-17T03:23:48.918Z,79.30
2022-12-17T03:26:34.761Z,70.57
2022-12-17T03:29:20.218Z,103.40
2022-12-17T03:32:06.132Z,96.03
2022-12-17T03:34:52.930Z,91.63
2022-12-17T03:37:38.831Z,89.43
2022-12-17T03:40:25.853Z,79.17
2022-12-17T03:43:12.003Z,145.87
2022-12-17T03:45:57.467Z,118.63
2022-12-17T03:48:43.187Z,94.57
2022-12-17T03:51:30.558Z,113.33
2022-12-17T03:54:16.854Z,102.80
2022-12-17T03:57:02.688Z,69.50
2022-12-17T03:59:48.607Z,92.13
2022-12-17T04:02:34.647Z,93.43
2022-12-17T04:05:20.866Z,73.53
2022-12-17T04:08:08.141Z,73.03
2022-12-17T04:10:54.352Z,86.43
2022-12-17T04:13:42.959Z,83.73
2022-12-17T04:16:31.690Z,80.03
2022-12-17T04:19:17.248Z,120.10
2022-12-17T04:22:03.221Z,93.30
2022-12-17T04:24:50.306Z,79.03
2022-12-17T04:27:36.189Z,76.50
2022-12-17T04:30:22.611Z,73.43
2022-12-17T04:33:08.671Z,74.23
2022-12-17T04:35:54.548Z,75.90
2022-12-17T04:38:40.635Z,73.67
2022-12-17T04:41:27.935Z,87.07
2022-12-17T04:44:13.846Z,84.93
2022-12-17T04:46:59.361Z,73.27
2022-12-17T04:49:45.708Z,71.63
2022-12-17T04:52:31.538Z,70.83
2022-12-17T04:55:17.594Z,73.03
2022-12-17T04:58:05.144Z,71.80
2022-12-17T05:00:51.376Z,72.00
2022-12-17T05:03:37.504Z,118.37
2022-12-17T05:06:24.874Z,100.70
2022-12-17T05:09:10.387Z,72.43
2022-12-17T05:11:56.523Z,92.90
2022-12-17T05:14:43.438Z,83.33
2022-12-17T05:17:29.683Z,75.80
2022-12-17T05:20:15.126Z,97.83
2022-12-17T05:23:00.953Z,71.73
2022-12-17T05:25:46.476Z,74.27
2022-12-17T05:28:32.640Z,73.70
2022-12-17T05:31:16.375Z,89.10
2022-12-17T05:34:02.613Z,74.17
2022-12-17T05:36:48.334Z,78.67
2022-12-17T05:39:30.962Z,89.97
2022-12-17T05:42:16.951Z,72.73
2022-12-17T05:45:02.764Z,70.47
2022-12-17T05:47:49.946Z,74.23
2022-12-17T05:50:36.145Z,72.47
2022-12-17T05:53:22.665Z,69.00
2022-12-17T05:56:10.950Z,71.40
2022-12-17T05:58:57.156Z,67.57
2022-12-17T06:01:43.270Z,69.63
2022-12-17T06:04:30.210Z,69.37
2022-12-17T06:07:15.226Z,66.77
2022-12-17T06:10:01.057Z,68.77
2022-12-17T06:12:46.896Z,72.47
2022-12-17T06:15:32.772Z,66.50
2022-12-17T06:18:20.183Z,72.00
2022-12-17T06:21:07.359Z,68.17
2022-12-17T06:23:53.666Z,67.03
2022-12-17T06:26:39.503Z,67.33
2022-12-17T06:29:25.385Z,70.87
2022-12-17T06:32:11.072Z,67.80
2022-12-17T06:34:57.125Z,67.97
2022-12-17T06:37:44.307Z,69.93
2022-12-17T06:40:30.636Z,69.03
2022-12-17T06:43:16.620Z,69.53
2022-12-17T06:46:02.687Z,66.40
2022-12-17T06:48:48.255Z,65.73
2022-12-17T06:51:34.343Z,65.93
2022-12-17T06:54:21.123Z,66.60
2022-12-17T06:57:07.325Z,66.20
2022-12-17T06:59:53.116Z,67.20
2022-12-17T07:02:39.387Z,66.97
2022-12-17T07:05:26.193Z,68.37
2022-12-17T07:08:16.249Z,68.53
2022-12-17T07:11:03.969Z,67.57
2022-12-17T07:13:50.035Z,71.77
2022-12-17T07:16:35.933Z,72.10
2022-12-17T07:19:27.046Z,72.17
2022-12-17T07:22:14.210Z,70.70
2022-12-17T07:25:00.681Z,70.80
2022-12-17T07:27:48.233Z,73.07
2022-12-17T07:30:34.758Z,67.70
2022-12-17T07:33:21.615Z,71.07
2022-12-17T07:36:07.183Z,72.37
2022-12-17T07:38:53.644Z,69.83
2022-12-17T07:41:39.855Z,69.33
2022-12-17T07:44:27.092Z,71.77
2022-12-17T07:47:13.139Z,70.07
2022-12-17T07:49:58.754Z,69.17
2022-12-17T07:52:44.620Z,70.57
2022-12-17T07:55:38.569Z,71.40
2022-12-17T07:58:27.895Z,69.10
2022-12-17T08:01:18.320Z,70.63
2022-12-17T08:04:04.937Z,73.37
2022-12-17T08:06:50.675Z,70.40
2022-12-17T08:09:36.456Z,73.50
2022-12-17T08:12:22.823Z,81.43
2022-12-17T08:15:08.057Z,72.43
2022-12-17T08:17:54.920Z,72.07
2022-12-17T08:20:41.586Z,70.77
2022-12-17T08:23:27.573Z,69.47
2022-12-17T08:26:13.566Z,72.30
2022-12-17T08:28:59.665Z,72.43
2022-12-17T08:31:45.926Z,71.07
2022-12-17T08:34:33.114Z,70.97
2022-12-17T08:37:19.312Z,75.20
2022-12-17T08:40:05.296Z,71.60
2022-12-17T08:42:51.717Z,69.87
2022-12-17T08:45:37.270Z,73.10
2022-12-17T08:48:25.081Z,68.37
2022-12-17T08:51:12.393Z,72.70
2022-12-17T08:53:54.851Z,69.33
2022-12-17T08:56:40.578Z,69.87
2022-12-17T08:59:26.720Z,67.73
2022-12-17T09:02:12.592Z,67.87
2022-12-17T09:04:59.170Z,70.17
2022-12-17T09:07:46.452Z,66.07
2022-12-17T09:10:32.408Z,66.87
2022-12-17T09:13:20.682Z,70.23
2022-12-17T09:16:11.073Z,71.40
2022-12-17T09:18:56.883Z,66.23
2022-12-17T09:21:45.418Z,68.47
2022-12-17T09:24:33.100Z,70.13
2022-12-17T09:27:19.061Z,66.73
2022-12-17T09:30:04.739Z,72.97
2022-12-17T09:32:51.221Z,73.57
2022-12-17T09:35:37.128Z,68.43
2022-12-17T09:38:22.931Z,70.77
2022-12-17T09:41:11.658Z,69.27
2022-12-17T09:44:05.032Z,68.63
2022-12-17T09:46:57.060Z,71.77
2022-12-17T09:49:46.405Z,72.20
2022-12-17T09:52:39.029Z,71.50
2022-12-17T09:55:38.723Z,70.43
2022-12-17T09:58:37.468Z,71.23
2022-12-17T10:01:24.725Z,68.50
2022-12-17T10:04:11.193Z,69.13
2022-12-17T10:06:57.200Z,70.53
2022-12-17T10:09:45.846Z,103.23
2022-12-17T10:12:33.690Z,71.43
2022-12-17T10:15:21.314Z,70.63
2022-12-17T10:18:06.975Z,64.87
2022-12-17T10:20:57.025Z,57.17
2022-12-17T10:23:45.112Z,66.37
2022-12-17T10:26:36.201Z,73.67
2022-12-17T10:29:28.127Z,69.27
2022-12-17T10:32:18.868Z,68.10
2022-12-17T10:35:05.982Z,67.67
2022-12-17T10:38:02.674Z,70.30
2022-12-17T10:40:51.649Z,68.33
2022-12-17T10:43:46.320Z,72.60
2022-12-17T10:46:57.393Z,69.67
2022-12-17T10:49:44.336Z,71.77
2022-12-17T10:52:43.116Z,70.73
2022-12-17T10:55:40.626Z,72.67
2022-12-17T10:58:32.718Z,72.50
2022-12-17T11:01:19.681Z,71.80
2022-12-17T11:04:09.158Z,70.07
2022-12-17T11:07:01.535Z,73.23
2022-12-17T11:10:08.607Z,75.70
2022-12-17T11:13:00.728Z,72.23
2022-12-17T11:15:51.538Z,67.50
2022-12-17T11:18:41.020Z,73.67
2022-12-17T11:21:31.592Z,75.03
2022-12-17T11:24:22.798Z,74.60
2022-12-17T11:27:12.245Z,74.30
2022-12-17T11:29:58.012Z,94.70
2022-12-17T11:33:00.310Z,63.37
2022-12-17T11:35:52.550Z,65.23
2022-12-17T11:38:48.520Z,83.07
2022-12-17T11:41:45.155Z,77.33
2022-12-17T11:44:40.637Z,74.67
2022-12-17T11:47:36.068Z,76.27
2022-12-17T11:50:34.829Z,72.83
2022-12-17T11:53:29.908Z,79.00
2022-12-17T11:56:24.092Z,73.43
2022-12-17T11:59:13.796Z,79.60
2022-12-17T12:02:07.256Z,77.83
2022-12-17T12:05:16.047Z,81.93
2022-12-17T12:08:13.231Z,80.73
2022-12-17T12:11:05.904Z,75.67
2022-12-17T12:13:58.942Z,11.87
2022-12-17T12:17:08.269Z,10.93
2022-12-17T12:20:01.863Z,10.97
2022-12-17T12:22:54.134Z,13.50
2022-12-17T12:25:51.567Z,31.40
2022-12-17T12:28:48.624Z,58.30
2022-12-17T12:31:43.283Z,56.67
2022-12-17T12:34:35.374Z,50.13
2022-12-17T12:37:23.892Z,55.10
2022-12-17T12:40:15.870Z,50.73
2022-12-17T12:43:08.168Z,55.70
2022-12-17T12:46:04.398Z,61.87
2022-12-17T12:49:01.359Z,66.90
2022-12-17T12:51:52.529Z,66.13
2022-12-17T12:54:49.903Z,64.17
2022-12-17T12:57:50.133Z,70.57
2022-12-17T13:00:48.758Z,67.23
2022-12-17T13:03:47.057Z,70.13
2022-12-17T13:06:37.408Z,68.87
2022-12-17T13:09:20.794Z,73.27
2022-12-17T13:11:51.800Z,65.43
2022-12-17T13:14:24.232Z,67.13
2022-12-17T13:16:56.441Z,64.90
2022-12-17T13:19:36.659Z,58.60
2022-12-17T13:22:29.257Z,68.00
2022-12-17T13:25:17.029Z,59.93
2022-12-17T13:27:46.675Z,59.07
2022-12-17T13:30:24.809Z,57.30
2022-12-17T13:33:05.907Z,56.83
2022-12-17T13:35:41.964Z,57.83
2022-12-17T13:38:19.908Z,57.33
2022-12-17T13:41:08.039Z,52.67
2022-12-17T13:43:43.296Z,53.70
2022-12-17T13:46:20.336Z,58.30
2022-12-17T13:48:57.538Z,59.67
2022-12-17T13:51:27.973Z,57.13
2022-12-17T13:53:57.877Z,55.87
2022-12-17T13:56:29.796Z,52.73
2022-12-17T13:59:08.437Z,54.70
2022-12-17T14:01:45.714Z,57.17
2022-12-17T14:04:22.292Z,58.20
2022-12-17T14:06:51.531Z,51.93
2022-12-17T14:09:22.868Z,58.73
2022-12-17T14:12:10.063Z,57.60
2022-12-17T14:14:41.522Z,55.23
2022-12-17T14:17:18.423Z,52.73
2022-12-17T14:19:47.868Z,50.47
2022-12-17T14:22:21.483Z,50.07
2022-12-17T14:24:50.180Z,45.57
2022-12-17T14:27:27.672Z,44.43
2022-12-17T14:29:56.970Z,48.90
2022-12-17T14:32:28.142Z,52.07
2022-12-17T14:35:00.606Z,52.83
2022-12-17T14:37:30.422Z,53.83
2022-12-17T14:40:03.854Z,66.23
2022-12-17T14:42:37.587Z,52.00
2022-12-17T14:45:09.126Z,51.93
2022-12-17T14:47:38.685Z,54.93
2022-12-17T14:50:25.149Z,52.27
2022-12-17T14:52:54.658Z,52.17
2022-12-17T14:55:30.661Z,51.17
2022-12-17T14:58:21.983Z,56.43
2022-12-17T15:00:54.555Z,52.50
2022-12-17T15:03:26.521Z,50.23
2022-12-17T15:05:59.291Z,53.13
2022-12-17T15:08:30.649Z,63.80
2022-12-17T15:10:59.231Z,58.10
2022-12-17T15:13:28.874Z,56.40
2022-12-17T15:15:57.659Z,59.17
2022-12-17T15:18:26.104Z,58.97
2022-12-17T15:20:54.785Z,58.40
2022-12-17T15:23:25.179Z,58.50
2022-12-17T15:25:55.472Z,61.33
2022-12-17T15:28:24.895Z,57.63
2022-12-17T15:30:55.212Z,55.50
2022-12-17T15:33:23.542Z,58.93
2022-12-17T15:35:52.468Z,59.47
2022-12-17T15:38:20.765Z,63.77
2022-12-17T15:40:49.292Z,61.33
2022-12-17T15:43:16.564Z,61.77
2022-12-17T15:45:46.966Z,62.93
2022-12-17T15:48:18.549Z,64.03
2022-12-17T15:50:47.116Z,62.33
2022-12-17T15:53:15.682Z,60.67
2022-12-17T15:55:44.701Z,59.73
2022-12-17T15:58:13.895Z,58.30
2022-12-17T16:00:42.418Z,56.30
2022-12-17T16:03:10.776Z,60.60
2022-12-17T16:05:40.993Z,60.90
2022-12-17T16:08:09.249Z,60.10
2022-12-17T16:10:38.714Z,63.43
2022-12-17T16:13:06.957Z,73.93
2022-12-17T16:15:35.612Z,62.57
2022-12-17T16:18:03.921Z,66.57
2022-12-17T16:20:32.578Z,39.37
2022-12-17T16:23:02.315Z,15.33
2022-12-17T16:25:30.942Z,15.43
2022-12-17T16:27:59.198Z,15.53
2022-12-17T16:30:27.760Z,12.57
2022-12-17T16:32:58.848Z,14.07
2022-12-17T16:35:28.774Z,12.10
2022-12-17T16:37:57.021Z,11.80
2022-12-17T16:40:27.034Z,11.40
2022-12-17T16:42:56.729Z,13.60
2022-12-17T16:45:25.236Z,14.97
2022-12-17T16:47:53.588Z,13.00
2022-12-17T16:50:22.310Z,13.27
2022-12-17T16:52:50.567Z,11.73
2022-12-17T16:55:19.135Z,12.93
2022-12-17T16:57:48.750Z,12.83
2022-12-17T17:00:17.658Z,13.50
2022-12-17T17:02:53.047Z,12.17
2022-12-17T17:05:22.188Z,13.83
2022-12-17T17:07:50.477Z,13.70
2022-12-17T17:10:19.208Z,12.73
2022-12-17T17:12:48.881Z,13.60
2022-12-17T17:15:17.634Z,14.77
2022-12-17T17:17:55.963Z,12.53
2022-12-17T17:20:26.240Z,12.10
2022-12-17T17:22:54.596Z,14.40
2022-12-17T17:25:23.292Z,15.63
2022-12-17T17:27:53.135Z,15.27
2022-12-17T17:30:21.619Z,13.57
2022-12-17T17:32:50.160Z,13.50
2022-12-17T17:35:18.933Z,13.63
2022-12-17T17:37:47.249Z,13.37
2022-12-17T17:40:16.000Z,13.83
2022-12-17T17:42:47.366Z,14.33
2022-12-17T17:45:21.487Z,15.60
2022-12-17T17:47:49.790Z,13.97
2022-12-17T17:50:18.422Z,14.27
2022-12-17T17:52:46.724Z,15.17
2022-12-17T17:55:15.351Z,15.40
2022-12-17T17:57:43.591Z,16.83
2022-12-17T18:00:13.330Z,16.10
2022-12-17T18:02:43.223Z,17.70
2022-12-17T18:05:12.082Z,16.03
2022-12-17T18:07:40.444Z,13.57
2022-12-17T18:10:10.106Z,14.97
2022-12-17T18:12:56.053Z,15.50
2022-12-17T18:15:24.859Z,14.87
2022-12-17T18:17:54.852Z,12.60
2022-12-17T18:20:23.684Z,11.97
2022-12-17T18:22:52.350Z,12.40
2022-12-17T18:25:21.842Z,13.37
2022-12-17T18:27:53.130Z,12.17
2022-12-17T18:30:22.086Z,11.40
2022-12-17T18:32:50.670Z,13.37
2022-12-17T18:35:21.064Z,12.47
2022-12-17T18:37:49.481Z,12.43
2022-12-17T18:40:18.472Z,11.77
2022-12-17T18:43:04.226Z,11.90
2022-12-17T18:45:38.297Z,12.33
2022-12-17T18:48:07.052Z,12.83
2022-12-17T18:50:38.527Z,11.93
2022-12-17T18:53:07.402Z,12.33
2022-12-17T18:55:40.525Z,12.70
2022-12-17T18:58:10.483Z,11.70
2022-12-17T19:00:39.982Z,14.93
2022-12-17T19:03:10.160Z,11.90
2022-12-17T19:05:45.802Z,13.47
2022-12-17T19:08:15.003Z,11.43
2022-12-17T19:10:43.836Z,13.13
2022-12-17T19:13:14.285Z,13.73
2022-12-17T19:15:43.126Z,13.53
2022-12-17T19:18:11.468Z,12.73
2022-12-17T19:20:41.711Z,13.40
2022-12-17T19:23:10.144Z,16.60
2022-12-17T19:25:39.077Z,12.90
2022-12-17T19:28:07.710Z,14.60
2022-12-17T19:30:36.604Z,12.83
2022-12-17T19:33:08.471Z,15.37
2022-12-17T19:35:37.630Z,15.20
2022-12-17T19:38:07.263Z,16.23
2022-12-17T19:40:36.224Z,16.97
2022-12-17T19:43:04.583Z,14.37
2022-12-17T19:45:33.448Z,14.90
2022-12-17T19:48:01.997Z,14.80
2022-12-17T19:50:31.025Z,13.43
2022-12-17T19:52:59.561Z,15.40
2022-12-17T19:55:29.545Z,13.97
2022-12-17T19:57:57.898Z,14.90
2022-12-17T20:00:27.015Z,14.00
2022-12-17T20:02:56.498Z,13.17
2022-12-17T20:05:26.677Z,14.73
2022-12-17T20:07:54.963Z,14.63
2022-12-17T20:10:23.567Z,12.60
2022-12-17T20:12:53.242Z,11.73
2022-12-17T20:15:21.820Z,12.57
2022-12-17T20:17:50.610Z,13.10
2022-12-17T20:20:19.265Z,13.80
2022-12-17T20:22:47.625Z,13.63
2022-12-17T20:25:16.381Z,12.57
2022-12-17T20:27:44.903Z,11.93
2022-12-17T20:30:15.592Z,12.93
2022-12-17T20:32:44.741Z,14.17
2022-12-17T20:35:13.645Z,13.17
2022-12-17T20:37:42.098Z,14.93
2022-12-17T20:40:11.820Z,16.20
2022-12-17T20:42:40.159Z,13.27
2022-12-17T20:45:09.746Z,15.97
2022-12-17T20:47:39.511Z,14.17
2022-12-17T20:50:11.045Z,16.43
2022-12-17T20:52:39.486Z,15.03
2022-12-17T20:55:08.822Z,16.10
2022-12-17T20:57:37.112Z,15.30
2022-12-17T21:00:07.154Z,14.47
2022-12-17T21:02:36.312Z,14.87
2022-12-17T21:05:07.790Z,14.23
2022-12-17T21:07:36.153Z,15.83
2022-12-17T21:10:05.237Z,17.13
2022-12-17T21:12:54.256Z,14.93
2022-12-17T21:15:23.078Z,14.93
2022-12-17T21:17:51.581Z,15.40
2022-12-17T21:20:21.630Z,17.77
2022-12-17T21:22:50.463Z,14.10
2022-12-17T21:25:19.258Z,18.23
2022-12-17T21:27:47.657Z,16.03
2022-12-17T21:30:16.336Z,16.07
2022-12-17T21:32:44.652Z,14.77
2022-12-17T21:35:15.861Z,15.13
2022-12-17T21:37:46.705Z,14.90
2022-12-17T21:40:16.214Z,16.87
2022-12-17T21:43:02.464Z,19.50
2022-12-17T21:45:36.489Z,15.63
2022-12-17T21:48:05.635Z,15.10
2022-12-17T21:50:42.108Z,13.97
2022-12-17T21:53:13.536Z,14.73
2022-12-17T21:55:42.463Z,16.63
2022-12-17T21:58:11.238Z,15.10
2022-12-17T22:00:40.057Z,15.03
2022-12-17T22:03:08.436Z,15.33
2022-12-17T22:05:37.180Z,15.40
2022-12-17T22:08:06.304Z,14.30
2022-12-17T22:10:43.781Z,14.33
2022-12-17T22:13:33.810Z,14.10
2022-12-17T22:16:06.910Z,15.07
2022-12-17T22:18:35.227Z,15.00
2022-12-17T22:21:04.972Z,12.73
2022-12-17T22:23:33.660Z,15.57
2022-12-17T22:26:04.016Z,13.63
2022-12-17T22:28:32.300Z,12.33
2022-12-17T22:31:23.584Z,14.60
2022-12-17T22:34:50.675Z,12.47
2022-12-17T22:39:55.391Z,12.53
2022-12-17T22:44:31.064Z,13.57
2022-12-17T22:44:37.201Z,14.80
2022-12-17T22:45:26.686Z,13.23
2022-12-17T22:47:55.533Z,14.37
2022-12-17T22:50:28.169Z,15.40
2022-12-17T22:53:03.049Z,15.83
2022-12-17T22:55:32.047Z,14.47
2022-12-17T22:58:02.771Z,17.23
2022-12-17T23:00:34.758Z,16.73
2022-12-17T23:03:03.729Z,16.37
2022-12-17T23:05:33.281Z,15.93
2022-12-17T23:08:02.270Z,14.47
2022-12-17T23:10:30.620Z,16.57
2022-12-17T23:12:59.307Z,17.13
2022-12-17T23:15:32.088Z,17.47
2022-12-17T23:18:02.951Z,16.47
2022-12-17T23:20:33.817Z,16.10
2022-12-17T23:23:03.159Z,15.57
2022-12-17T23:25:31.824Z,15.07
2022-12-17T23:28:00.395Z,14.93
2022-12-17T23:30:30.501Z,13.37
2022-12-17T23:32:59.227Z,12.97
2022-12-17T23:35:27.716Z,13.80
2022-12-17T23:37:56.399Z,14.27
2022-12-17T23:40:25.839Z,15.37
2022-12-17T23:42:57.350Z,14.30
2022-12-17T23:45:25.716Z,15.97
2022-12-17T23:47:57.482Z,13.17
2022-12-17T23:50:25.837Z,15.60
2022-12-17T23:52:54.483Z,15.97
2022-12-17T23:55:22.770Z,19.33
2022-12-17T23:57:55.597Z,16.03
